createdAt,value
2023-04-23T00:02:47.908Z,100214.38
2023-04-23T00:05:54.430Z,100213.28
2023-04-23T00:09:01.690Z,100211.66
2023-04-23T00:12:09.862Z,100207.16
2023-04-23T00:15:16.248Z,100203.44
2023-04-23T00:18:20.231Z,100202.06
2023-04-23T00:21:23.256Z,100202.63
2023-04-23T00:24:27.548Z,100195.75
2023-04-23T00:27:32.816Z,100191.34
2023-04-23T00:30:39.030Z,100200.44
2023-04-23T00:33:44.088Z,100194.38
2023-04-23T00:36:47.055Z,100195.75
2023-04-23T00:39:51.369Z,100194.13
2023-04-23T00:42:56.037Z,100199.06
2023-04-23T00:45:59.415Z,100185.16
2023-04-23T00:49:03.514Z,100183.09
2023-04-23T00:52:06.920Z,100183.34
2023-04-23T00:55:11.607Z,100182.66
2023-04-23T00:58:15.078Z,100178.38
2023-04-23T01:01:20.934Z,100174.81
2023-04-23T01:04:25.671Z,100179.75
2023-04-23T01:07:29.572Z,100182.78
2023-04-23T01:10:34.243Z,100178.09
2023-04-23T01:13:37.268Z,100167.72
2023-04-23T01:16:42.609Z,100169.81
2023-04-23T01:19:45.941Z,100171.16
2023-04-23T01:22:50.968Z,100174.06
2023-04-23T01:25:56.705Z,100173.09
2023-04-23T01:29:00.873Z,100176.97
2023-04-23T01:32:04.448Z,100176.97
2023-04-23T01:35:08.427Z,100176.00
2023-04-23T01:38:15.410Z,100169.66
2023-04-23T01:41:18.526Z,100176.72
2023-04-23T01:44:21.885Z,100176.97
2023-04-23T01:47:25.805Z,100173.38
2023-04-23T01:50:29.962Z,100166.66
2023-04-23T01:53:34.374Z,100166.78
2023-04-23T01:56:37.484Z,100168.44
2023-04-23T01:59:41.341Z,100170.34
2023-04-23T02:02:46.123Z,100165.91
2023-04-23T02:05:50.552Z,100159.84
2023-04-23T02:08:54.853Z,100158.94
2023-04-23T02:11:58.269Z,100151.50
2023-04-23T02:15:01.712Z,100158.94
2023-04-23T02:18:05.512Z,100151.69
2023-04-23T02:21:08.548Z,100157.19
2023-04-23T02:24:13.244Z,100151.72
2023-04-23T02:27:16.507Z,100156.84
2023-04-23T02:30:19.493Z,100161.94
2023-04-23T02:33:22.514Z,100166.34
2023-04-23T02:36:28.619Z,100165.06
2023-04-23T02:39:33.125Z,100164.91
2023-04-23T02:42:36.472Z,100144.53
2023-04-23T02:45:39.494Z,100142.31
2023-04-23T02:48:43.267Z,100140.66
2023-04-23T02:51:46.292Z,100152.06
2023-04-23T02:54:53.429Z,100151.06
2023-04-23T02:57:56.648Z,100143.09
2023-04-23T03:01:00.737Z,100136.78
2023-04-23T03:04:04.990Z,100120.31
2023-04-23T03:07:08.228Z,100113.84
2023-04-23T03:10:13.542Z,100123.06
2023-04-23T03:13:16.633Z,100125.25
2023-04-23T03:16:19.979Z,100139.97
2023-04-23T03:19:23.199Z,100145.84
2023-04-23T03:22:26.307Z,100145.72
2023-04-23T03:25:31.640Z,100143.91
2023-04-23T03:28:34.975Z,100131.81
2023-04-23T03:31:38.094Z,100131.13
2023-04-23T03:34:43.934Z,100120.84
2023-04-23T03:37:47.379Z,100113.13
2023-04-23T03:40:52.411Z,100115.44
2023-04-23T03:43:55.578Z,100103.09
2023-04-23T03:47:19.005Z,100107.06
2023-04-23T03:50:22.535Z,100104.78
2023-04-23T03:53:39.604Z,100101.88
2023-04-23T03:57:04.118Z,100092.78
2023-04-23T04:04:03.079Z,100087.59
2023-04-23T04:11:41.112Z,100066.56
2023-04-23T04:16:12.627Z,100062.00
2023-04-23T04:21:10.655Z,100072.44
2023-04-23T04:29:50.412Z,100105.59
2023-04-23T04:32:54.870Z,100099.13
2023-04-23T04:35:59.474Z,100092.97
2023-04-23T04:39:03.573Z,100092.13
2023-04-23T04:42:07.947Z,100090.75
2023-04-23T04:45:12.439Z,100092.97
2023-04-23T04:48:15.457Z,100094.19
2023-04-23T04:51:20.606Z,100091.47
2023-04-23T04:54:24.231Z,100089.81
2023-04-23T04:57:27.308Z,100094.19
2023-04-23T05:00:32.622Z,100089.25
2023-04-23T05:03:37.151Z,100091.19
2023-04-23T05:06:41.751Z,100095.88
2023-04-23T05:09:45.268Z,100103.56
2023-04-23T05:12:48.924Z,100101.91
2023-04-23T05:15:51.964Z,100099.03
2023-04-23T05:18:54.985Z,100096.41
2023-04-23T05:21:59.352Z,100099.13
2023-04-23T05:25:03.798Z,100104.34
2023-04-23T05:28:08.580Z,100107.22
2023-04-23T05:31:11.659Z,100105.66
2023-04-23T05:34:14.698Z,100105.38
2023-04-23T05:37:19.122Z,100106.47
2023-04-23T05:40:22.361Z,100107.28
2023-04-23T05:43:25.453Z,100112.25
2023-04-23T05:46:31.461Z,100113.47
2023-04-23T05:49:34.552Z,100111.91
2023-04-23T05:52:39.514Z,100120.69
2023-04-23T05:55:42.877Z,100126.19
2023-04-23T05:58:46.287Z,100118.41
2023-04-23T06:01:50.033Z,100120.31
2023-04-23T06:04:53.259Z,100115.31
2023-04-23T06:07:57.825Z,100124.78
2023-04-23T06:11:24.337Z,100121.03
2023-04-23T06:14:27.646Z,100131.91
2023-04-23T06:17:30.729Z,100125.03
2023-04-23T06:20:33.840Z,100125.13
2023-04-23T06:23:38.233Z,100130.44
2023-04-23T06:26:41.228Z,100129.47
2023-04-23T06:29:52.453Z,100140.16
2023-04-23T06:32:55.701Z,100133.22
2023-04-23T06:35:58.733Z,100140.19
2023-04-23T06:39:03.339Z,100132.84
2023-04-23T06:42:06.625Z,100145.00
2023-04-23T06:45:19.615Z,100137.25
2023-04-23T06:48:22.658Z,100137.63
2023-04-23T06:51:28.864Z,100141.81
2023-04-23T06:54:36.151Z,100139.97
2023-04-23T06:57:46.899Z,100141.13
2023-04-23T07:00:52.551Z,100141.31
2023-04-23T07:03:57.074Z,100147.94
2023-04-23T07:07:00.429Z,100156.59
2023-04-23T07:10:10.934Z,100156.22
2023-04-23T07:13:24.145Z,100154.78
2023-04-23T07:16:35.175Z,100160.72
2023-04-23T07:19:43.252Z,100164.19
2023-04-23T07:22:47.897Z,100160.78
2023-04-23T07:25:53.128Z,100169.00
2023-04-23T07:28:56.266Z,100170.53
2023-04-23T07:31:59.548Z,100176.38
2023-04-23T07:35:02.650Z,100168.50
2023-04-23T07:38:05.912Z,100168.28
2023-04-23T07:41:10.352Z,100170.16
2023-04-23T07:44:13.957Z,100161.50
2023-04-23T07:47:17.734Z,100162.19
2023-04-23T07:50:30.434Z,100164.41
2023-04-23T07:53:36.519Z,100151.72
2023-04-23T07:56:44.049Z,100156.94
2023-04-23T07:59:47.281Z,100151.16
2023-04-23T08:02:54.410Z,100157.22
2023-04-23T08:06:09.830Z,100154.44
2023-04-23T08:09:19.212Z,100149.44
2023-04-23T08:12:26.661Z,100151.91
2023-04-23T08:15:31.016Z,100152.97
2023-04-23T08:18:35.267Z,100153.81
2023-04-23T08:21:38.646Z,100153.22
2023-04-23T08:24:41.935Z,100147.97
2023-04-23T08:27:46.549Z,100133.38
2023-04-23T08:30:50.197Z,100140.25
2023-04-23T08:33:53.291Z,100151.41
2023-04-23T08:36:56.446Z,100142.28
2023-04-23T08:39:59.889Z,100151.03
2023-04-23T08:43:14.040Z,100147.47
2023-04-23T08:46:19.193Z,100147.00
2023-04-23T08:49:22.338Z,100148.88
2023-04-23T08:52:27.110Z,100146.56
2023-04-23T08:55:39.958Z,100143.72
2023-04-23T08:58:44.969Z,100150.72
2023-04-23T09:01:48.423Z,100147.50
2023-04-23T09:04:56.206Z,100151.38
2023-04-23T09:08:00.436Z,100163.63
2023-04-23T09:11:05.773Z,100164.22
2023-04-23T09:14:11.398Z,100163.16
2023-04-23T09:17:14.418Z,100168.81
2023-04-23T09:20:17.869Z,100172.78
2023-04-23T09:23:26.604Z,100174.59
2023-04-23T09:26:29.734Z,100177.81
2023-04-23T09:29:34.098Z,100178.72
2023-04-23T09:32:39.825Z,100181.19
2023-04-23T09:35:44.137Z,100185.28
2023-04-23T09:38:50.330Z,100178.19
2023-04-23T09:41:54.808Z,100190.56
2023-04-23T09:45:05.654Z,100188.16
2023-04-23T09:48:08.840Z,100191.72
2023-04-23T09:51:15.139Z,100196.22
2023-04-23T09:54:21.674Z,100192.69
2023-04-23T09:57:26.124Z,100199.88
2023-04-23T10:00:35.157Z,100203.78
2023-04-23T10:03:43.403Z,100207.63
2023-04-23T10:06:58.008Z,100205.56
2023-04-23T10:10:11.218Z,100207.88
2023-04-23T10:13:16.018Z,100216.84
2023-04-23T10:16:26.901Z,100207.63
2023-04-23T10:19:43.702Z,100212.72
2023-04-23T10:22:56.383Z,100222.75
2023-04-23T10:26:07.153Z,100234.63
2023-04-23T10:29:16.520Z,100234.88
2023-04-23T10:32:22.409Z,100232.94
2023-04-23T10:35:27.767Z,100233.50
2023-04-23T10:38:36.636Z,100221.69
2023-04-23T10:41:44.979Z,100215.19
2023-04-23T10:44:57.824Z,100207.88
2023-04-23T10:48:04.996Z,100197.59
2023-04-23T10:51:42.041Z,100210.03
2023-04-23T10:54:33.004Z,100214.03
2023-04-23T10:58:01.510Z,100219.22
2023-04-23T11:01:06.736Z,100232.31
2023-04-23T11:04:25.938Z,100242.75
2023-04-23T11:07:34.625Z,100247.69
2023-04-23T11:10:57.167Z,100251.41
2023-04-23T11:14:14.114Z,100259.31
2023-04-23T11:17:19.749Z,100258.06
2023-04-23T11:20:25.772Z,100263.03
2023-04-23T11:23:33.484Z,100261.50
2023-04-23T11:26:38.452Z,100265.09
2023-04-23T11:29:44.164Z,100260.28
2023-04-23T11:32:49.781Z,100255.47
2023-04-23T11:35:54.248Z,100259.94
2023-04-23T11:38:58.330Z,100268.94
2023-04-23T11:42:05.689Z,100270.63
2023-04-23T11:45:16.441Z,100270.09
2023-04-23T11:48:19.916Z,100278.94
2023-04-23T11:51:27.061Z,100272.47
2023-04-23T11:54:30.485Z,100274.38
2023-04-23T12:02:42.420Z,100271.16
2023-04-23T12:08:12.616Z,100274.16
2023-04-23T12:11:02.790Z,100258.84
2023-04-23T12:14:08.439Z,100259.88
2023-04-23T12:17:12.606Z,100272.22
2023-04-23T12:20:21.235Z,100280.34
2023-04-23T12:23:29.200Z,100288.94
2023-04-23T12:26:32.281Z,100289.53
2023-04-23T12:29:36.629Z,100289.22
2023-04-23T12:32:39.676Z,100292.38
2023-04-23T12:35:44.879Z,100291.94
2023-04-23T12:38:49.250Z,100291.09
2023-04-23T12:41:55.386Z,100279.91
2023-04-23T12:45:08.216Z,100279.84
2023-04-23T12:48:11.165Z,100273.94
2023-04-23T12:51:14.234Z,100278.06
2023-04-23T12:54:19.043Z,100280.28
2023-04-23T12:57:23.393Z,100270.38
2023-04-23T13:00:27.242Z,100270.53
2023-04-23T13:03:30.760Z,100273.63
2023-04-23T13:06:34.014Z,100261.41
2023-04-23T13:09:42.345Z,100268.06
2023-04-23T13:12:45.814Z,100262.63
2023-04-23T13:15:53.338Z,100257.56
2023-04-23T13:18:56.476Z,100265.50
2023-04-23T13:21:59.425Z,100248.72
2023-04-23T13:25:08.752Z,100256.81
2023-04-23T13:28:12.516Z,100254.69
2023-04-23T13:31:15.664Z,100246.19
2023-04-23T13:34:19.203Z,100247.84
2023-04-23T13:37:23.923Z,100250.16
2023-04-23T13:40:28.382Z,100247.72
2023-04-23T13:43:31.817Z,100239.97
2023-04-23T13:46:35.485Z,100236.63
2023-04-23T13:49:41.772Z,100226.69
2023-04-23T13:52:53.556Z,100226.84
2023-04-23T13:56:00.493Z,100227.88
2023-04-23T14:02:10.202Z,100219.03
2023-04-23T14:05:13.219Z,100220.50
2023-04-23T14:08:16.303Z,100223.88
2023-04-23T14:11:20.917Z,100224.38
2023-04-23T14:14:23.909Z,100213.81
2023-04-23T14:17:27.034Z,100213.09
2023-04-23T14:20:32.773Z,100213.91
2023-04-23T14:23:51.853Z,100202.19
2023-04-23T14:26:56.890Z,100201.66
2023-04-23T14:30:06.150Z,100210.28
2023-04-23T14:33:11.710Z,100204.97
2023-04-23T14:36:15.338Z,100193.25
2023-04-23T14:39:18.514Z,100184.53
2023-04-23T14:42:22.825Z,100181.84
2023-04-23T14:45:26.195Z,100184.16
2023-04-23T14:48:29.633Z,100184.19
2023-04-23T14:51:32.688Z,100173.75
2023-04-23T14:54:36.330Z,100176.03
2023-04-23T14:57:40.616Z,100177.59
2023-04-23T15:00:43.670Z,100178.47
2023-04-23T15:03:47.047Z,100168.22
2023-04-23T15:06:50.320Z,100172.69
2023-04-23T15:09:55.794Z,100174.13
2023-04-23T15:13:09.697Z,100159.72
2023-04-23T15:16:46.529Z,100166.59
2023-04-23T15:19:54.337Z,100165.56
2023-04-23T15:22:57.432Z,100169.56
2023-04-23T15:26:05.546Z,100156.81
2023-04-23T15:29:10.536Z,100155.81
2023-04-23T15:32:13.606Z,100147.97
2023-04-23T15:35:16.635Z,100146.03
2023-04-23T15:38:19.735Z,100135.66
2023-04-23T15:41:23.427Z,100138.34
2023-04-23T15:44:27.794Z,100136.59
2023-04-23T15:47:30.788Z,100141.97
2023-04-23T15:50:33.816Z,100139.25
2023-04-23T15:53:36.879Z,100142.59
2023-04-23T15:56:40.918Z,100144.63
2023-04-23T15:59:45.384Z,100141.97
2023-04-23T16:02:49.430Z,100141.16
2023-04-23T16:05:52.658Z,100138.16
2023-04-23T16:08:55.708Z,100129.09
2023-04-23T16:11:59.035Z,100126.00
2023-04-23T16:15:04.014Z,100114.19
2023-04-23T16:18:07.114Z,100116.72
2023-04-23T16:21:10.200Z,100119.41
2023-04-23T16:24:13.194Z,100111.47
2023-04-23T16:27:16.158Z,100109.47
2023-04-23T16:30:21.649Z,100106.53
2023-04-23T16:33:25.691Z,100101.91
2023-04-23T16:36:29.864Z,100097.38
2023-04-23T16:39:33.182Z,100094.13
2023-04-23T16:42:36.206Z,100092.56
2023-04-23T16:45:41.395Z,100093.28
2023-04-23T16:48:48.445Z,100094.50
2023-04-23T16:51:51.446Z,100087.06
2023-04-23T16:54:54.473Z,100079.00
2023-04-23T16:57:57.646Z,100085.84
2023-04-23T17:01:01.948Z,100082.88
2023-04-23T17:04:07.154Z,100074.66
2023-04-23T17:07:10.874Z,100069.75
2023-04-23T17:10:15.375Z,100074.03
2023-04-23T17:13:18.566Z,100070.47
2023-04-23T17:16:25.242Z,100063.44
2023-04-23T17:19:28.524Z,100061.31
2023-04-23T17:22:31.491Z,100059.38
2023-04-23T17:25:35.001Z,100064.59
2023-04-23T17:28:40.664Z,100061.50
2023-04-23T17:31:45.624Z,100056.94
2023-04-23T17:34:56.423Z,100055.13
2023-04-23T17:38:06.054Z,100054.63
2023-04-23T17:41:09.070Z,100048.22
2023-04-23T17:44:12.420Z,100051.50
2023-04-23T17:47:16.759Z,100049.38
2023-04-23T17:50:19.871Z,100056.91
2023-04-23T17:53:23.174Z,100046.19
2023-04-23T17:56:27.095Z,100045.88
2023-04-23T17:59:31.653Z,100052.91
2023-04-23T18:02:40.245Z,100047.47
2023-04-23T18:05:43.703Z,100042.06
2023-04-23T18:08:47.063Z,100046.19
2023-04-23T18:11:51.045Z,100057.00
2023-04-23T18:14:54.849Z,100057.28
2023-04-23T18:17:59.729Z,100061.41
2023-04-23T18:21:02.971Z,100058.56
2023-04-23T18:24:09.252Z,100061.16
2023-04-23T18:27:12.428Z,100064.00
2023-04-23T18:30:16.118Z,100073.44
2023-04-23T18:33:33.562Z,100074.03
2023-04-23T18:36:38.991Z,100076.28
2023-04-23T18:39:42.006Z,100077.59
2023-04-23T18:42:45.011Z,100083.28
2023-04-23T18:45:48.067Z,100087.06
2023-04-23T18:49:01.135Z,100086.16
2023-04-23T18:52:04.332Z,100090.00
2023-04-23T18:55:07.928Z,100083.34
2023-04-23T18:58:10.906Z,100081.22
2023-04-23T19:01:14.761Z,100080.47
2023-04-23T19:04:19.544Z,100079.03
2023-04-23T19:07:23.100Z,100076.44
2023-04-23T19:10:26.120Z,100076.16
2023-04-23T19:13:29.315Z,100073.97
2023-04-23T19:16:32.625Z,100077.47
2023-04-23T19:19:37.003Z,100075.06
2023-04-23T19:22:42.101Z,100079.22
2023-04-23T19:25:45.565Z,100071.16
2023-04-23T19:28:48.540Z,100075.59
2023-04-23T19:31:51.616Z,100077.00
2023-04-23T19:34:56.309Z,100075.06
2023-04-23T19:37:59.425Z,100069.59
2023-04-23T19:41:02.539Z,100062.75
2023-04-23T19:44:05.720Z,100061.69
2023-04-23T19:47:08.953Z,100058.28
2023-04-23T19:50:13.841Z,100059.22
2023-04-23T19:53:17.040Z,100055.25
2023-04-23T19:56:22.876Z,100058.97
2023-04-23T19:59:25.970Z,100057.59
2023-04-23T20:02:29.409Z,100056.94
2023-04-23T20:05:33.829Z,100046.06
2023-04-23T20:08:42.435Z,100048.81
2023-04-23T20:11:46.051Z,100051.28
2023-04-23T20:14:49.047Z,100044.97
2023-04-23T20:17:52.706Z,100046.34
2023-04-23T20:20:57.086Z,100036.41
2023-04-23T20:24:00.236Z,100032.88
2023-04-23T20:27:03.225Z,100027.78
2023-04-23T20:30:09.736Z,100035.63
2023-04-23T20:33:13.164Z,100037.53
2023-04-23T20:36:17.526Z,100030.66
2023-04-23T20:39:24.297Z,100023.22
2023-04-23T20:42:28.927Z,100025.59
2023-04-23T20:45:32.562Z,100027.38
2023-04-23T20:48:36.792Z,100019.53
2023-04-23T20:51:41.250Z,100014.31
2023-04-23T20:54:44.245Z,100006.22
2023-04-23T20:57:47.258Z,100011.16
2023-04-23T21:00:51.235Z,99998.78
2023-04-23T21:03:54.746Z,99995.75
2023-04-23T21:06:59.476Z,99994.78
2023-04-23T21:10:02.553Z,99988.34
2023-04-23T21:13:07.836Z,99979.53
2023-04-23T21:16:12.226Z,99984.47
2023-04-23T21:19:15.794Z,99978.16
2023-04-23T21:22:20.060Z,99973.91
2023-04-23T21:25:24.570Z,99962.47
2023-04-23T21:28:27.718Z,99958.38
2023-04-23T21:31:40.315Z,99958.47
2023-04-23T21:34:43.380Z,99944.06
2023-04-23T21:37:47.650Z,99949.56
2023-04-23T21:40:50.674Z,99945.00
2023-04-23T21:43:53.837Z,99939.94
2023-04-23T21:46:56.905Z,99944.91
2023-04-23T21:50:00.219Z,99944.91
2023-04-23T21:53:39.423Z,99940.91
2023-04-23T21:56:45.679Z,99930.88
2023-04-23T21:59:50.113Z,99936.91
2023-04-23T22:02:55.918Z,99933.22
2023-04-23T22:06:04.568Z,99942.41
2023-04-23T22:09:11.401Z,99927.84
2023-04-23T22:12:14.964Z,99937.75
2023-04-23T22:15:19.469Z,99938.56
2023-04-23T22:18:22.633Z,99949.28
2023-04-23T22:21:25.733Z,99943.91
2023-04-23T22:24:30.066Z,99960.25
2023-04-23T22:27:36.873Z,99943.22
2023-04-23T22:30:40.384Z,99953.22
2023-04-23T22:33:44.454Z,99950.16
2023-04-23T22:36:47.582Z,99943.56
2023-04-23T22:39:52.062Z,99943.44
2023-04-23T22:42:56.948Z,99932.84
2023-04-23T22:46:03.295Z,99928.19
2023-04-23T22:49:08.102Z,99937.66
2023-04-23T22:52:11.771Z,99931.91
2023-04-23T22:55:18.894Z,99925.16
2023-04-23T22:58:25.590Z,99916.34
2023-04-23T23:01:28.827Z,99903.06
2023-04-23T23:04:39.324Z,99891.25
2023-04-23T23:07:44.139Z,99898.09
2023-04-23T23:10:48.629Z,99898.09
2023-04-23T23:13:51.680Z,99884.38
2023-04-23T23:16:58.697Z,99882.13
2023-04-23T23:20:06.837Z,99874.84
2023-04-23T23:23:09.836Z,99868.97
2023-04-23T23:26:18.530Z,99867.84
2023-04-23T23:29:24.673Z,99857.31
2023-04-23T23:32:33.350Z,99855.66
2023-04-23T23:35:39.191Z,99849.88
2023-04-23T23:38:44.610Z,99849.69
2023-04-23T23:41:49.085Z,99835.41
2023-04-23T23:44:52.600Z,99832.56
2023-04-23T23:47:59.183Z,99829.94
2023-04-23T23:51:02.230Z,99835.72
2023-04-23T23:54:06.131Z,99821.72
2023-04-23T23:57:10.927Z,99826.41
